Time,TemperatureF,DewpointF,PressureIn,WindDirection,WindDirectionDegrees,WindSpeedMPH,WindSpeedGustMPH,Humidity,HourlyPrecipIn,Conditions,Clouds,dailyrainin,SoftwareType,DateUTC
2013-06-24 00:01:00,71.8,71.5,30.05,SE,135,4.6,4.6,99,0.00,CLR,OVC,0.00,WeatherDisplay:10.37,2013-06-24 04:01:00,
2013-06-24 00:03:00,71.8,71.5,30.05,ESE,112,3.5,3.5,99,0.00,CLR,OVC,0.00,WeatherDisplay:10.37,2013-06-24 04:03:00,
2013-06-24 00:08:00,71.8,71.5,30.05,NNW,338,0.0,0.0,99,0.00,CLR,OVC,0.00,WeatherDisplay:10.37,2013-06-24 04:08:00,
2013-06-24 00:13:00,71.6,71.3,30.04,South,180,2.3,2.3,99,0.00,CLR,OVC,0.00,WeatherDisplay:10.37,2013-06-24 04:13:00,
2013-06-24 00:18:00,71.6,71.3,30.04,SE,135,2.3,2.3,99,0.00,CLR,OVC,0.00,WeatherDisplay:10.37,2013-06-24 04:18:00,
2013-06-24 00:23:00,71.6,71.3,30.04,South,180,2.7,2.7,99,0.00,CLR,OVC,0.00,WeatherDisplay:10.37,2013-06-24 04:23:00,
2013-06-24 00:29:00,71.6,71.3,30.03,South,180,1.1,0.0,99,0.00,CLR,OVC,0.00,WeatherDisplay:10.37,2013-06-24 04:29:00,
2013-06-24 00:34:00,71.6,71.3,30.03,SE,135,0.0,0.0,99,0.00,CLR,OVC,0.00,WeatherDisplay:10.37,2013-06-24 04:34:00,
2013-06-24 00:39:00,71.8,71.5,30.04,SE,135,0.0,0.0,99,0.00,CLR,OVC,0.00,WeatherDisplay:10.37,2013-06-24 04:39:00,
2013-06-24 00:44:00,72.0,71.7,30.04,SE,135,3.5,3.5,99,0.00,CLR,OVC,0.00,WeatherDisplay:10.37,2013-06-24 04:44:00,
2013-06-24 00:49:00,72.0,71.7,30.03,South,180,2.3,2.3,99,0.00,CLR,OVC,0.00,WeatherDisplay:10.37,2013-06-24 04:49:00,
2013-06-24 00:54:00,72.0,71.7,30.03,SE,135,2.3,2.3,99,0.00,CLR,OVC,0.00,WeatherDisplay:10.37,2013-06-24 04:54:00,
2013-06-24 00:59:00,72.0,71.7,30.03,ENE,68,2.3,2.3,99,0.00,CLR,OVC,0.00,WeatherDisplay:10.37,2013-06-24 04:59:00,
2013-06-24 01:04:00,72.0,71.7,30.04,SSW,202,2.2,2.2,99,0.00,CLR,OVC,0.00,WeatherDisplay:10.37,2013-06-24 05:04:00,
2013-06-24 01:09:00,72.0,71.7,30.04,SE,135,3.5,3.5,99,0.00,CLR,OVC,0.00,WeatherDisplay:10.37,2013-06-24 05:09:00,
2013-06-24 01:14:00,72.0,71.7,30.03,ESE,112,4.6,4.6,99,0.00,CLR,OVC,0.00,WeatherDisplay:10.37,2013-06-24 05:14:00,
2013-06-24 01:20:00,72.0,71.7,30.03,ESE,112,3.5,3.5,99,0.00,CLR,OVC,0.00,WeatherDisplay:10.37,2013-06-24 05:20:00,
2013-06-24 01:25:00,72.0,71.7,30.03,SSE,158,3.5,3.5,99,0.00,CLR,OVC,0.00,WeatherDisplay:10.37,2013-06-24 05:25:00,
2013-06-24 01:30:00,72.1,71.8,30.03,ESE,112,3.5,3.5,99,0.00,CLR,OVC,0.00,WeatherDisplay:10.37,2013-06-24 05:30:00,
2013-06-24 01:35:00,72.1,71.8,30.03,ESE,112,4.6,4.6,99,0.00,CLR,OVC,0.00,WeatherDisplay:10.37,2013-06-24 05:35:00,
2013-06-24 01:40:00,72.1,71.8,30.03,SSE,158,0.0,0.0,99,0.00,CLR,OVC,0.00,WeatherDisplay:10.37,2013-06-24 05:40:00,
2013-06-24 01:45:00,72.3,72.0,30.03,SSW,202,3.5,3.5,99,0.00,CLR,OVC,0.00,WeatherDisplay:10.37,2013-06-24 05:45:00,
2013-06-24 01:50:00,72.5,72.2,30.03,SE,135,2.7,2.7,99,0.00,CLR,OVC,0.00,WeatherDisplay:10.37,2013-06-24 05:50:00,
2013-06-24 01:55:00,72.5,72.2,30.03,SSW,202,3.7,3.7,99,0.00,CLR,OVC,0.00,WeatherDisplay:10.37,2013-06-24 05:55:00,
2013-06-24 02:01:00,72.5,72.2,30.03,SSE,158,3.5,3.5,99,0.00,CLR,OVC,0.00,WeatherDisplay:10.37,2013-06-24 06:01:00,
2013-06-24 02:07:00,72.5,72.2,30.03,SSE,158,2.7,2.7,99,0.00,CLR,OVC,0.00,WeatherDisplay:10.37,2013-06-24 06:07:00,
2013-06-24 02:12:00,72.7,72.4,30.03,South,180,3.5,3.5,99,0.00,CLR,OVC,0.00,WeatherDisplay:10.37,2013-06-24 06:12:00,
2013-06-24 02:17:00,72.7,72.4,30.02,SE,135,2.7,2.7,99,0.00,CLR,OVC,0.00,WeatherDisplay:10.37,2013-06-24 06:17:00,
2013-06-24 02:22:00,72.9,72.6,30.02,SSW,202,2.3,2.3,99,0.00,CLR,OVC,0.00,WeatherDisplay:10.37,2013-06-24 06:22:00,
2013-06-24 02:27:00,73.0,72.7,30.02,SSE,158,2.3,2.3,99,0.00,CLR,OVC,0.00,WeatherDisplay:10.37,2013-06-24 06:27:00,
2013-06-24 02:33:00,73.2,72.9,30.02,East,90,3.5,3.5,99,0.00,CLR,OVC,0.00,WeatherDisplay:10.37,2013-06-24 06:33:00,
2013-06-24 02:38:00,73.4,73.1,30.02,SSE,158,4.6,4.6,99,0.00,CLR,OVC,0.00,WeatherDisplay:10.37,2013-06-24 06:38:00,
2013-06-24 02:43:00,73.4,73.1,30.02,South,180,2.7,2.7,99,0.00,CLR,OVC,0.00,WeatherDisplay:10.37,2013-06-24 06:43:00,
2013-06-24 02:48:00,73.6,73.3,30.02,SSW,202,2.3,2.3,99,0.00,CLR,OVC,0.00,WeatherDisplay:10.37,2013-06-24 06:48:00,
2013-06-24 02:54:00,73.6,73.3,30.02,SE,135,2.3,2.3,99,0.00,CLR,OVC,0.00,WeatherDisplay:10.37,2013-06-24 06:54:00,
2013-06-24 02:59:00,73.6,73.3,30.02,East,90,3.5,3.5,99,0.00,CLR,OVC,0.00,WeatherDisplay:10.37,2013-06-24 06:59:00,
2013-06-24 03:05:00,73.6,73.3,30.02,South,180,2.3,2.3,99,0.00,CLR,OVC,0.00,WeatherDisplay:10.37,2013-06-24 07:05:00,
2013-06-24 03:10:00,73.6,73.3,30.02,South,180,4.6,4.6,99,0.00,CLR,OVC,0.00,WeatherDisplay:10.37,2013-06-24 07:10:00,
2013-06-24 03:15:00,73.6,73.3,30.02,ESE,112,3.5,3.5,99,0.00,CLR,OVC,0.00,WeatherDisplay:10.37,2013-06-24 07:15:00,
2013-06-24 03:20:00,73.6,73.3,30.02,ESE,112,2.3,2.3,99,0.00,CLR,OVC,0.00,WeatherDisplay:10.37,2013-06-24 07:20:00,
2013-06-24 03:25:00,73.6,73.3,30.02,SSE,158,2.3,2.3,99,0.00,CLR,OVC,0.00,WeatherDisplay:10.37,2013-06-24 07:25:00,
2013-06-24 03:30:00,73.6,73.3,30.02,SE,135,0.0,0.0,99,0.00,CLR,OVC,0.00,WeatherDisplay:10.37,2013-06-24 07:30:00,
2013-06-24 03:36:00,73.6,73.3,30.02,East,90,0.0,0.0,99,0.00,CLR,OVC,0.00,WeatherDisplay:10.37,2013-06-24 07:36:00,
2013-06-24 03:41:00,73.4,73.1,30.02,South,180,3.5,3.5,99,0.00,CLR,OVC,0.00,WeatherDisplay:10.37,2013-06-24 07:41:00,
2013-06-24 03:46:00,73.4,73.1,30.02,ESE,112,0.0,0.0,99,0.00,CLR,OVC,0.00,WeatherDisplay:10.37,2013-06-24 07:46:00,
2013-06-24 03:51:00,73.2,72.9,30.02,SE,135,0.0,0.0,99,0.00,CLR,OVC,0.00,WeatherDisplay:10.37,2013-06-24 07:51:00,
2013-06-24 03:56:00,73.2,72.9,30.02,SSE,158,0.0,0.0,99,0.00,CLR,OVC,0.00,WeatherDisplay:10.37,2013-06-24 07:56:00,
2013-06-24 04:01:00,73.0,72.7,30.02,South,180,0.0,0.0,99,0.00,CLR,OVC,0.00,WeatherDisplay:10.37,2013-06-24 08:01:00,
2013-06-24 04:06:00,72.9,72.6,30.02,SSE,158,0.0,0.0,99,0.00,CLR,OVC,0.00,WeatherDisplay:10.37,2013-06-24 08:06:00,
2013-06-24 04:11:00,72.9,72.6,30.02,SSE,158,0.0,0.0,99,0.00,CLR,OVC,0.00,WeatherDisplay:10.37,2013-06-24 08:11:00,
2013-06-24 04:17:00,72.7,72.4,30.01,SSE,158,0.0,0.0,99,0.00,CLR,OVC,0.00,WeatherDisplay:10.37,2013-06-24 08:17:00,
2013-06-24 04:22:00,72.7,72.4,30.01,SSE,158,0.0,0.0,99,0.00,CLR,OVC,0.00,WeatherDisplay:10.37,2013-06-24 08:22:00,
2013-06-24 04:27:00,72.7,72.4,30.01,SSE,158,0.0,0.0,99,0.00,CLR,OVC,0.00,WeatherDisplay:10.37,2013-06-24 08:27:00,
2013-06-24 04:32:00,72.7,72.4,30.01,SSE,158,2.3,2.3,99,0.00,CLR,OVC,0.00,WeatherDisplay:10.37,2013-06-24 08:32:00,
2013-06-24 04:37:00,72.7,72.4,30.01,South,180,2.3,2.3,99,0.00,CLR,OVC,0.00,WeatherDisplay:10.37,2013-06-24 08:37:00,
2013-06-24 04:43:00,72.7,72.4,30.01,SSE,158,0.0,0.0,99,0.00,CLR,OVC,0.00,WeatherDisplay:10.37,2013-06-24 08:43:00,
2013-06-24 04:49:00,72.7,72.4,30.01,SSW,202,2.2,2.2,99,0.00,CLR,OVC,0.00,WeatherDisplay:10.37,2013-06-24 08:49:00,
2013-06-24 04:55:00,72.7,72.4,30.01,SE,135,0.0,0.0,99,0.00,CLR,OVC,0.00,WeatherDisplay:10.37,2013-06-24 08:55:00,
2013-06-24 05:00:00,72.7,72.4,30.01,South,180,0.0,0.0,99,0.00,CLR,OVC,0.00,WeatherDisplay:10.37,2013-06-24 09:00:00,
2013-06-24 05:05:00,72.5,72.2,30.01,South,180,0.0,0.0,99,0.00,CLR,OVC,0.00,WeatherDisplay:10.37,2013-06-24 09:05:00,
2013-06-24 05:10:00,72.5,72.2,30.01,SSE,158,0.0,0.0,99,0.00,CLR,OVC,0.00,WeatherDisplay:10.37,2013-06-24 09:10:00,
2013-06-24 05:15:00,72.5,72.2,30.01,SSE,158,0.0,0.0,99,0.00,CLR,OVC,0.00,WeatherDisplay:10.37,2013-06-24 09:15:00,
2013-06-24 05:21:00,72.3,72.0,30.01,SSE,158,0.0,0.0,99,0.00,CLR,OVC,0.00,WeatherDisplay:10.37,2013-06-24 09:21:00,
2013-06-24 05:26:00,72.3,72.0,30.01,South,180,0.0,0.0,99,0.00,CLR,OVC,0.00,WeatherDisplay:10.37,2013-06-24 09:26:00,
2013-06-24 05:31:00,72.3,72.0,30.01,SSW,202,0.0,0.0,99,0.00,CLR,OVC,0.00,WeatherDisplay:10.37,2013-06-24 09:31:00,
2013-06-24 05:36:00,72.3,72.0,30.01,ESE,112,0.0,0.0,99,0.00,CLR,OVC,0.00,WeatherDisplay:10.37,2013-06-24 09:36:00,
2013-06-24 05:41:00,72.5,72.2,30.01,SW,225,0.0,0.0,99,0.00,CLR,OVC,0.00,WeatherDisplay:10.37,2013-06-24 09:41:00,
2013-06-24 05:46:00,72.5,72.2,30.01,SSE,158,0.0,0.0,99,0.00,CLR,OVC,0.00,WeatherDisplay:10.37,2013-06-24 09:46:00,
2013-06-24 05:51:00,72.5,72.2,30.01,SSE,158,0.0,0.0,99,0.00,CLR,OVC,0.00,WeatherDisplay:10.37,2013-06-24 09:51:00,
2013-06-24 05:57:00,72.7,72.4,30.01,South,180,0.0,0.0,99,0.00,CLR,OVC,0.00,WeatherDisplay:10.37,2013-06-24 09:57:00,
2013-06-24 06:02:00,72.9,72.6,30.01,SSE,158,0.0,0.0,99,0.00,CLR,OVC,0.00,WeatherDisplay:10.37,2013-06-24 10:02:00,
2013-06-24 06:07:00,73.0,72.7,30.01,South,180,2.3,2.3,99,0.00,CLR,OVC,0.00,WeatherDisplay:10.37,2013-06-24 10:07:00,
2013-06-24 06:12:00,73.0,72.7,30.01,SSE,158,3.5,3.5,99,0.00,CLR,OVC,0.00,WeatherDisplay:10.37,2013-06-24 10:12:00,
2013-06-24 06:17:00,73.2,72.9,30.01,SE,135,2.3,2.3,99,0.00,CLR,OVC,0.00,WeatherDisplay:10.37,2013-06-24 10:17:00,
2013-06-24 06:22:00,73.4,73.1,30.01,SSE,158,2.3,2.6,99,0.00,CLR,OVC,0.00,WeatherDisplay:10.37,2013-06-24 10:22:00,
2013-06-24 06:27:00,73.6,73.3,30.01,SSE,158,3.5,3.5,99,0.00,CLR,OVC,0.00,WeatherDisplay:10.37,2013-06-24 10:27:00,
2013-06-24 06:32:00,73.6,73.3,30.01,South,180,2.3,2.3,99,0.00,CLR,OVC,0.00,WeatherDisplay:10.37,2013-06-24 10:32:00,
2013-06-24 06:37:00,73.6,73.3,30.02,SE,135,0.0,0.0,99,0.00,CLR,OVC,0.00,WeatherDisplay:10.37,2013-06-24 10:37:00,
2013-06-24 06:42:00,73.8,73.5,30.02,SSE,158,0.0,0.0,99,0.00,CLR,OVC,0.00,WeatherDisplay:10.37,2013-06-24 10:42:00,
2013-06-24 06:48:00,74.3,74.0,30.02,SE,135,2.3,2.3,99,0.00,CLR,OVC,0.00,WeatherDisplay:10.37,2013-06-24 10:48:00,
2013-06-24 06:53:00,75.0,74.7,30.02,South,180,1.1,1.6,99,0.00,CLR,OVC,0.00,WeatherDisplay:10.37,2013-06-24 10:53:00,
2013-06-24 06:58:00,75.6,75.3,30.02,SSE,158,1.1,0.0,99,0.00,CLR,OVC,0.00,WeatherDisplay:10.37,2013-06-24 10:58:00,
2013-06-24 07:03:00,75.9,75.3,30.02,SSE,158,3.5,3.5,98,0.00,CLR,OVC,0.00,WeatherDisplay:10.37,2013-06-24 11:03:00,
2013-06-24 07:09:00,75.9,75.3,30.02,SE,135,3.5,3.5,98,0.00,CLR,OVC,0.00,WeatherDisplay:10.37,2013-06-24 11:09:00,
2013-06-24 07:14:00,76.3,75.4,30.02,SE,135,4.6,4.6,97,0.00,CLR,OVC,0.00,WeatherDisplay:10.37,2013-06-24 11:14:00,
2013-06-24 07:20:00,77.0,75.5,30.02,SSE,158,3.5,3.5,95,0.00,CLR,OVC,0.00,WeatherDisplay:10.37,2013-06-24 11:20:00,
2013-06-24 07:25:00,77.7,75.8,30.02,SE,135,2.3,2.3,94,0.00,CLR,OVC,0.00,WeatherDisplay:10.37,2013-06-24 11:25:00,
2013-06-24 07:30:00,77.9,75.7,30.02,SE,135,4.6,4.6,93,0.00,CLR,OVC,0.00,WeatherDisplay:10.37,2013-06-24 11:30:00,
2013-06-24 07:35:00,78.1,75.9,30.02,SSE,158,4.6,4.6,93,0.00,CLR,OVC,0.00,WeatherDisplay:10.37,2013-06-24 11:35:00,
2013-06-24 07:40:00,77.9,75.4,30.02,SSW,202,4.6,4.6,92,0.00,CLR,OVC,0.00,WeatherDisplay:10.37,2013-06-24 11:40:00,
2013-06-24 07:45:00,78.3,75.8,30.02,SE,135,3.7,3.7,92,0.00,CLR,OVC,0.00,WeatherDisplay:10.37,2013-06-24 11:45:00,
2013-06-24 07:51:00,78.3,75.8,30.02,SE,135,3.5,3.5,92,0.00,CLR,OVC,0.00,WeatherDisplay:10.37,2013-06-24 11:51:00,
2013-06-24 07:56:00,78.4,75.9,30.02,SW,225,3.5,3.5,92,0.00,CLR,OVC,0.00,WeatherDisplay:10.37,2013-06-24 11:56:00,
2013-06-24 08:01:00,79.0,75.8,30.02,East,90,4.6,4.6,90,0.00,CLR,OVC,0.00,WeatherDisplay:10.37,2013-06-24 12:01:00,
2013-06-24 08:06:00,79.3,75.4,30.02,ESE,112,5.8,5.8,88,0.00,CLR,OVC,0.00,WeatherDisplay:10.37,2013-06-24 12:06:00,
2013-06-24 08:12:00,79.7,75.5,30.02,NE,45,3.5,3.5,87,0.00,CLR,OVC,0.00,WeatherDisplay:10.37,2013-06-24 12:12:00,
2013-06-24 08:17:00,80.1,75.5,30.02,SW,225,5.3,5.3,86,0.00,CLR,OVC,0.00,WeatherDisplay:10.37,2013-06-24 12:17:00,
2013-06-24 08:22:00,79.9,75.3,30.02,NW,315,3.5,3.5,86,0.00,CLR,OVC,0.00,WeatherDisplay:10.37,2013-06-24 12:22:00,
2013-06-24 08:27:00,80.2,75.6,30.02,SE,135,3.5,3.5,86,0.00,CLR,OVC,0.00,WeatherDisplay:10.37,2013-06-24 12:27:00,
2013-06-24 08:33:00,80.2,75.3,30.02,NNE,22,3.2,3.2,85,0.00,CLR,OVC,0.00,WeatherDisplay:10.37,2013-06-24 12:33:00,
2013-06-24 08:38:00,80.6,75.3,30.02,NE,45,3.5,3.5,84,0.00,CLR,OVC,0.00,WeatherDisplay:10.37,2013-06-24 12:38:00,
2013-06-24 08:43:00,81.3,75.6,30.02,SW,225,4.6,4.6,83,0.00,CLR,OVC,0.00,WeatherDisplay:10.37,2013-06-24 12:43:00,
2013-06-24 08:48:00,82.0,76.0,30.02,SW,225,5.8,5.8,82,0.00,CLR,OVC,0.00,WeatherDisplay:10.37,2013-06-24 12:48:00,
2013-06-24 08:54:00,82.9,76.1,30.02,SSE,158,4.6,4.6,80,0.00,CLR,OVC,0.00,WeatherDisplay:10.37,2013-06-24 12:54:00,
2013-06-24 09:00:00,83.5,75.9,30.02,SE,135,5.8,5.8,78,0.00,CLR,OVC,0.00,WeatherDisplay:10.37,2013-06-24 13:00:00,
2013-06-24 09:05:00,84.0,76.0,30.02,West,270,4.6,4.6,77,0.00,CLR,OVC,0.00,WeatherDisplay:10.37,2013-06-24 13:05:00,
2013-06-24 09:10:00,84.0,75.6,30.02,NW,315,3.5,3.5,76,0.00,CLR,OVC,0.00,WeatherDisplay:10.37,2013-06-24 13:10:00,
2013-06-24 09:15:00,83.8,75.8,30.02,SW,225,3.5,3.5,77,0.00,CLR,OVC,0.00,WeatherDisplay:10.37,2013-06-24 13:15:00,
2013-06-24 09:21:00,85.5,76.3,30.02,West,270,3.5,3.5,74,0.00,CLR,OVC,0.00,WeatherDisplay:10.37,2013-06-24 13:21:00,
2013-06-24 09:26:00,85.5,75.9,30.02,SW,225,3.7,3.7,73,0.00,CLR,OVC,0.00,WeatherDisplay:10.37,2013-06-24 13:26:00,
2013-06-24 09:43:00,87.8,75.9,30.02,West,270,4.6,4.6,68,0.00,CLR,OVC,0.00,WeatherDisplay:10.37,2013-06-24 13:43:00,
2013-06-24 09:48:00,85.1,75.1,30.02,North,360,3.7,3.7,72,0.00,CLR,OVC,0.00,WeatherDisplay:10.37,2013-06-24 13:48:00,
2013-06-24 09:53:00,85.1,75.5,30.01,North,360,4.6,4.6,73,0.00,CLR,OVC,0.00,WeatherDisplay:10.37,2013-06-24 13:53:00,
2013-06-24 09:58:00,85.6,75.5,30.01,SSE,158,5.3,5.3,72,0.00,CLR,OVC,0.00,WeatherDisplay:10.37,2013-06-24 13:58:00,
2013-06-24 10:03:00,85.3,75.2,30.01,SSE,158,3.5,3.5,72,0.00,CLR,OVC,0.00,WeatherDisplay:10.37,2013-06-24 14:03:00,
2013-06-24 10:08:00,86.4,75.9,30.01,WNW,292,5.8,5.8,71,0.00,CLR,OVC,0.00,WeatherDisplay:10.37,2013-06-24 14:08:00,
2013-06-24 10:13:00,86.9,76.4,30.01,ESE,112,3.5,3.5,71,0.00,CLR,OVC,0.00,WeatherDisplay:10.37,2013-06-24 14:13:00,
2013-06-24 10:18:00,87.4,76.0,30.01,NNW,338,3.5,3.5,69,0.00,CLR,OVC,0.00,WeatherDisplay:10.37,2013-06-24 14:18:00,
2013-06-24 10:24:00,87.3,75.4,30.01,South,180,2.3,2.3,68,0.00,CLR,OVC,0.00,WeatherDisplay:10.37,2013-06-24 14:24:00,
2013-06-24 10:29:00,87.6,75.7,30.01,SE,135,3.5,3.5,68,0.00,CLR,OVC,0.00,WeatherDisplay:10.37,2013-06-24 14:29:00,
2013-06-24 10:34:00,88.2,75.4,30.01,WNW,292,5.3,5.3,66,0.00,CLR,OVC,0.00,WeatherDisplay:10.37,2013-06-24 14:34:00,
2013-06-24 10:40:00,87.4,75.5,30.01,SE,135,2.3,2.3,68,0.00,CLR,OVC,0.00,WeatherDisplay:10.37,2013-06-24 14:40:00,
2013-06-24 10:45:00,88.9,76.1,30.01,West,270,3.5,3.5,66,0.00,CLR,OVC,0.00,WeatherDisplay:10.37,2013-06-24 14:45:00,
2013-06-24 10:50:00,89.1,76.3,30.01,ESE,112,1.1,1.1,66,0.00,CLR,OVC,0.00,WeatherDisplay:10.37,2013-06-24 14:50:00,
2013-06-24 10:55:00,89.4,75.6,30.01,North,360,5.8,5.8,64,0.00,CLR,OVC,0.00,WeatherDisplay:10.37,2013-06-24 14:55:00,
2013-06-24 11:01:00,89.6,76.3,30.01,SSE,158,4.6,4.6,65,0.00,CLR,OVC,0.00,WeatherDisplay:10.37,2013-06-24 15:01:00,
2013-06-24 11:06:00,90.5,76.2,30.01,SSW,202,3.5,3.5,63,0.00,CLR,OVC,0.00,WeatherDisplay:10.37,2013-06-24 15:06:00,
2013-06-24 11:11:00,90.0,76.6,30.00,South,180,3.5,3.5,65,0.00,CLR,OVC,0.00,WeatherDisplay:10.37,2013-06-24 15:11:00,
2013-06-24 11:16:00,90.9,76.1,30.00,NW,315,6.9,6.9,62,0.00,CLR,OVC,0.00,WeatherDisplay:10.37,2013-06-24 15:16:00,
2013-06-24 11:22:00,90.3,76.5,30.00,WSW,248,2.3,2.3,64,0.00,CLR,OVC,0.00,WeatherDisplay:10.37,2013-06-24 15:22:00,
2013-06-24 11:27:00,91.6,75.7,30.00,SE,135,2.3,2.5,60,0.00,CLR,OVC,0.00,WeatherDisplay:10.37,2013-06-24 15:27:00,
2013-06-24 11:32:00,91.9,76.5,30.00,SSE,158,3.5,3.5,61,0.00,CLR,OVC,0.00,WeatherDisplay:10.37,2013-06-24 15:32:00,
2013-06-24 11:37:00,91.6,76.7,30.00,West,270,3.5,3.5,62,0.00,CLR,OVC,0.00,WeatherDisplay:10.37,2013-06-24 15:37:00,
2013-06-24 11:42:00,91.6,75.2,30.00,West,270,4.6,4.6,59,0.00,CLR,OVC,0.00,WeatherDisplay:10.37,2013-06-24 15:42:00,
2013-06-24 11:47:00,91.2,75.4,30.00,ESE,112,3.7,3.7,60,0.00,CLR,OVC,0.00,WeatherDisplay:10.37,2013-06-24 15:47:00,
2013-06-24 11:53:00,91.4,75.6,30.00,SE,135,4.6,4.6,60,0.00,CLR,OVC,0.00,WeatherDisplay:10.37,2013-06-24 15:53:00,
2013-06-24 11:58:00,92.3,74.9,30.00,South,180,5.8,5.8,57,0.00,CLR,OVC,0.00,WeatherDisplay:10.37,2013-06-24 15:58:00,
2013-06-24 12:03:00,92.5,75.6,30.00,SSE,158,4.6,4.6,58,0.00,CLR,OVC,0.00,WeatherDisplay:10.37,2013-06-24 16:03:00,
2013-06-24 12:08:00,91.9,75.0,30.00,West,270,2.3,2.3,58,0.00,CLR,OVC,0.00,WeatherDisplay:10.37,2013-06-24 16:08:00,
2013-06-24 12:13:00,93.2,75.7,30.00,SSE,158,3.7,3.7,57,0.00,CLR,OVC,0.00,WeatherDisplay:10.37,2013-06-24 16:13:00,
2013-06-24 12:19:00,93.4,75.9,30.00,SW,225,6.9,6.9,57,0.00,CLR,OVC,0.00,WeatherDisplay:10.37,2013-06-24 16:19:00,
2013-06-24 12:24:00,92.8,75.3,29.99,ESE,112,5.8,5.8,57,0.00,CLR,OVC,0.00,WeatherDisplay:10.37,2013-06-24 16:24:00,
2013-06-24 12:29:00,93.4,75.9,29.99,SSE,158,4.6,4.6,57,0.00,CLR,OVC,0.00,WeatherDisplay:10.37,2013-06-24 16:29:00,
2013-06-24 12:34:00,93.9,75.8,29.99,WNW,292,5.8,5.8,56,0.00,CLR,OVC,0.00,WeatherDisplay:10.37,2013-06-24 16:34:00,
2013-06-24 12:39:00,93.4,75.4,30.00,South,180,6.9,6.9,56,0.00,CLR,OVC,0.00,WeatherDisplay:10.37,2013-06-24 16:39:00,
2013-06-24 12:44:00,94.3,75.6,30.00,ESE,112,5.8,5.8,55,0.00,CLR,OVC,0.00,WeatherDisplay:10.37,2013-06-24 16:44:00,
2013-06-24 12:49:00,94.3,75.6,29.99,NW,315,4.6,5.2,55,0.00,CLR,OVC,0.00,WeatherDisplay:10.37,2013-06-24 16:49:00,
2013-06-24 12:54:00,94.6,75.4,29.99,SW,225,4.7,4.7,54,0.00,CLR,OVC,0.00,WeatherDisplay:10.37,2013-06-24 16:54:00,
2013-06-24 12:59:00,94.6,76.5,29.99,South,180,5.8,5.8,56,0.00,CLR,OVC,0.00,WeatherDisplay:10.37,2013-06-24 16:59:00,
2013-06-24 13:04:00,93.9,76.4,29.99,SE,135,9.4,9.4,57,0.00,CLR,OVC,0.00,WeatherDisplay:10.37,2013-06-24 17:04:00,
2013-06-24 13:10:00,93.7,76.2,29.99,South,180,6.8,6.8,57,0.00,CLR,OVC,0.00,WeatherDisplay:10.37,2013-06-24 17:10:00,
2013-06-24 13:15:00,93.6,77.1,29.99,SW,225,6.9,6.9,59,0.00,CLR,OVC,0.00,WeatherDisplay:10.37,2013-06-24 17:15:00,
2013-06-24 13:20:00,93.0,77.1,29.99,SSE,158,7.3,7.3,60,0.00,CLR,OVC,0.00,WeatherDisplay:10.37,2013-06-24 17:20:00,
2013-06-24 13:25:00,93.4,76.4,29.98,SE,135,4.6,4.6,58,0.00,CLR,OVC,0.00,WeatherDisplay:10.37,2013-06-24 17:25:00,
2013-06-24 13:30:00,93.6,76.1,29.98,West,270,4.7,4.7,57,0.00,CLR,OVC,0.00,WeatherDisplay:10.37,2013-06-24 17:30:00,
2013-06-24 13:36:00,91.6,75.7,29.98,ESE,112,5.8,5.8,60,0.00,CLR,OVC,0.00,WeatherDisplay:10.37,2013-06-24 17:36:00,
2013-06-24 13:41:00,91.0,75.7,29.98,South,180,8.1,8.1,61,0.00,CLR,OVC,0.00,WeatherDisplay:10.37,2013-06-24 17:41:00,
2013-06-24 13:46:00,90.9,75.1,29.98,WNW,292,6.9,7.1,60,0.00,CLR,OVC,0.00,WeatherDisplay:10.37,2013-06-24 17:46:00,
2013-06-24 13:52:00,91.0,75.2,29.97,NE,45,5.8,5.8,60,0.00,CLR,OVC,0.00,WeatherDisplay:10.37,2013-06-24 17:52:00,
2013-06-24 13:57:00,92.3,75.4,29.97,SSE,158,10.4,10.4,58,0.00,CLR,OVC,0.00,WeatherDisplay:10.37,2013-06-24 17:57:00,
2013-06-24 14:02:00,93.0,75.5,29.97,West,270,3.5,3.5,57,0.00,CLR,OVC,0.00,WeatherDisplay:10.37,2013-06-24 18:02:00,
2013-06-24 14:07:00,91.8,74.4,29.97,SE,135,5.8,5.8,57,0.00,CLR,OVC,0.00,WeatherDisplay:10.37,2013-06-24 18:07:00,
2013-06-24 14:12:00,91.8,74.4,29.96,South,180,5.8,5.8,57,0.00,CLR,OVC,0.00,WeatherDisplay:10.37,2013-06-24 18:12:00,
2013-06-24 14:17:00,93.2,75.2,29.96,South,180,5.8,5.8,56,0.00,CLR,OVC,0.00,WeatherDisplay:10.37,2013-06-24 18:17:00,
2013-06-24 14:23:00,93.9,71.8,29.96,East,90,4.6,4.8,49,0.00,CLR,OVC,0.00,WeatherDisplay:10.37,2013-06-24 18:23:00,
2013-06-24 14:29:00,93.7,69.8,29.96,SE,135,3.7,3.7,46,0.00,CLR,OVC,0.00,WeatherDisplay:10.37,2013-06-24 18:29:00,
2013-06-24 14:34:00,93.9,70.6,29.96,South,180,3.5,3.5,47,0.00,CLR,OVC,0.00,WeatherDisplay:10.37,2013-06-24 18:34:00,
2013-06-24 14:39:00,95.2,71.8,29.95,ESE,112,4.6,4.6,47,0.00,CLR,OVC,0.00,WeatherDisplay:10.37,2013-06-24 18:39:00,
2013-06-24 14:44:00,94.8,71.4,29.95,WNW,292,8.1,8.1,47,0.00,CLR,OVC,0.00,WeatherDisplay:10.37,2013-06-24 18:44:00,
2013-06-24 14:49:00,93.6,71.6,29.94,South,180,4.6,4.6,49,0.00,CLR,OVC,0.00,WeatherDisplay:10.37,2013-06-24 18:49:00,
2013-06-24 14:55:00,93.7,69.8,29.94,NW,315,5.8,5.8,46,0.00,CLR,OVC,0.00,WeatherDisplay:10.37,2013-06-24 18:55:00,
2013-06-24 15:00:00,94.3,70.3,29.94,SSE,158,6.9,6.9,46,0.00,CLR,OVC,0.00,WeatherDisplay:10.37,2013-06-24 19:00:00,
2013-06-24 15:05:00,95.2,69.2,29.93,ESE,112,5.8,6.1,43,0.00,CLR,OVC,0.00,WeatherDisplay:10.37,2013-06-24 19:05:00,
2013-06-24 15:10:00,95.4,69.4,29.93,NW,315,4.6,4.6,43,0.00,CLR,OVC,0.00,WeatherDisplay:10.37,2013-06-24 19:10:00,
2013-06-24 15:15:00,95.9,67.7,29.93,SSW,202,6.3,6.3,40,0.00,CLR,OVC,0.00,WeatherDisplay:10.37,2013-06-24 19:15:00,
2013-06-24 15:20:00,93.9,68.0,29.93,South,180,10.4,10.4,43,0.00,CLR,OVC,0.00,WeatherDisplay:10.37,2013-06-24 19:20:00,
2013-06-24 15:25:00,94.1,65.4,29.93,WSW,248,4.6,4.6,39,0.00,CLR,OVC,0.00,WeatherDisplay:10.37,2013-06-24 19:25:00,
2013-06-24 15:31:00,94.3,64.8,29.93,SSE,158,5.8,5.8,38,0.00,CLR,OVC,0.00,WeatherDisplay:10.37,2013-06-24 19:31:00,
2013-06-24 15:36:00,93.7,65.7,29.93,SSE,158,4.6,4.6,40,0.00,CLR,OVC,0.00,WeatherDisplay:10.37,2013-06-24 19:36:00,
2013-06-24 15:41:00,91.8,69.3,29.93,SW,225,6.9,6.9,48,0.00,CLR,OVC,0.00,WeatherDisplay:10.37,2013-06-24 19:41:00,
2013-06-24 15:46:00,90.7,69.5,29.93,SE,135,9.2,9.2,50,0.00,CLR,OVC,0.00,WeatherDisplay:10.37,2013-06-24 19:46:00,
2013-06-24 15:51:00,90.1,69.0,29.93,South,180,8.1,8.1,50,0.00,CLR,OVC,0.00,WeatherDisplay:10.37,2013-06-24 19:51:00,
2013-06-24 15:57:00,90.1,69.5,29.93,East,90,6.9,6.9,51,0.00,CLR,OVC,0.00,WeatherDisplay:10.37,2013-06-24 19:57:00,
2013-06-24 16:02:00,89.8,69.8,29.93,SSE,158,6.9,6.9,52,0.00,CLR,OVC,0.00,WeatherDisplay:10.37,2013-06-24 20:02:00,
2013-06-24 16:07:00,89.8,69.8,29.93,SSW,202,4.6,4.6,52,0.00,CLR,OVC,0.00,WeatherDisplay:10.37,2013-06-24 20:07:00,
2013-06-24 16:13:00,89.6,69.6,29.94,ESE,112,5.8,5.8,52,0.00,CLR,OVC,0.00,WeatherDisplay:10.37,2013-06-24 20:13:00,
2013-06-24 16:18:00,88.5,70.3,29.94,SSE,158,4.7,4.7,55,0.00,CLR,OVC,0.00,WeatherDisplay:10.37,2013-06-24 20:18:00,
2013-06-24 16:23:00,88.5,70.3,29.94,South,180,4.6,4.6,55,0.00,CLR,OVC,0.00,WeatherDisplay:10.37,2013-06-24 20:23:00,
2013-06-24 16:28:00,88.7,69.9,29.93,SE,135,6.9,6.9,54,0.00,CLR,OVC,0.00,WeatherDisplay:10.37,2013-06-24 20:28:00,
2013-06-24 16:33:00,88.7,69.9,29.93,SE,135,5.8,5.8,54,0.00,CLR,OVC,0.00,WeatherDisplay:10.37,2013-06-24 20:33:00,
2013-06-24 16:38:00,88.7,70.5,29.92,SSE,158,5.8,5.8,55,0.00,CLR,OVC,0.00,WeatherDisplay:10.37,2013-06-24 20:38:00,
2013-06-24 16:43:00,88.3,70.1,29.92,SE,135,5.8,5.8,55,0.00,CLR,OVC,0.00,WeatherDisplay:10.37,2013-06-24 20:43:00,
2013-06-24 16:49:00,88.3,70.6,29.92,ESE,112,5.8,5.8,56,0.00,CLR,OVC,0.00,WeatherDisplay:10.37,2013-06-24 20:49:00,
2013-06-24 16:54:00,88.0,70.9,29.92,SSW,202,6.8,6.8,57,0.00,CLR,OVC,0.00,WeatherDisplay:10.37,2013-06-24 20:54:00,
2013-06-24 16:59:00,87.8,70.7,29.92,SE,135,4.7,4.7,57,0.00,CLR,OVC,0.00,WeatherDisplay:10.37,2013-06-24 20:59:00,
2013-06-24 17:04:00,86.4,72.3,29.92,East,90,9.2,9.2,63,0.00,CLR,OVC,0.00,WeatherDisplay:10.37,2013-06-24 21:04:00,
2013-06-24 17:09:00,86.4,72.8,29.92,SE,135,5.8,5.8,64,0.00,CLR,OVC,0.00,WeatherDisplay:10.37,2013-06-24 21:09:00,
2013-06-24 17:14:00,86.0,72.4,29.91,South,180,7.3,7.3,64,0.00,CLR,OVC,0.00,WeatherDisplay:10.37,2013-06-24 21:14:00,
2013-06-24 17:19:00,85.5,71.9,29.91,South,180,8.3,8.3,64,0.00,CLR,OVC,0.00,WeatherDisplay:10.37,2013-06-24 21:19:00,
2013-06-24 17:24:00,85.3,71.7,29.92,SSE,158,4.6,4.6,64,0.00,CLR,OVC,0.00,WeatherDisplay:10.37,2013-06-24 21:24:00,
2013-06-24 17:29:00,84.9,70.9,29.92,SE,135,8.1,8.1,63,0.00,CLR,OVC,0.00,WeatherDisplay:10.37,2013-06-24 21:29:00,
2013-06-24 17:34:00,85.3,70.3,29.92,SSE,158,8.1,8.1,61,0.00,CLR,OVC,0.00,WeatherDisplay:10.37,2013-06-24 21:34:00,
2013-06-24 17:40:00,85.5,70.0,29.91,ESE,112,8.1,8.1,60,0.00,CLR,OVC,0.00,WeatherDisplay:10.37,2013-06-24 21:40:00,
2013-06-24 17:46:00,87.4,70.8,29.91,SE,135,4.6,4.6,58,0.00,CLR,OVC,0.00,WeatherDisplay:10.37,2013-06-24 21:46:00,
2013-06-24 17:51:00,88.5,71.3,29.92,SW,225,5.8,5.8,57,0.00,CLR,OVC,0.00,WeatherDisplay:10.37,2013-06-24 21:51:00,
2013-06-24 17:56:00,88.3,70.6,29.92,SSE,158,6.9,6.9,56,0.00,CLR,OVC,0.00,WeatherDisplay:10.37,2013-06-24 21:56:00,
2013-06-24 18:01:00,89.1,70.8,29.92,West,270,6.9,6.9,55,0.00,CLR,OVC,0.00,WeatherDisplay:10.37,2013-06-24 22:01:00,
2013-06-24 18:07:00,89.6,71.3,29.92,SE,135,5.8,5.8,55,0.00,CLR,OVC,0.00,WeatherDisplay:10.37,2013-06-24 22:07:00,
2013-06-24 18:12:00,90.5,71.0,29.92,SSW,202,4.7,4.7,53,0.00,CLR,OVC,0.00,WeatherDisplay:10.37,2013-06-24 22:12:00,
2013-06-24 18:17:00,89.1,70.3,29.93,South,180,4.6,4.6,54,0.00,CLR,OVC,0.00,WeatherDisplay:10.37,2013-06-24 22:17:00,
2013-06-24 18:22:00,88.3,70.1,29.93,SE,135,6.9,6.9,55,0.00,CLR,OVC,0.00,WeatherDisplay:10.37,2013-06-24 22:22:00,
2013-06-24 18:27:00,88.3,70.1,29.93,SE,135,6.9,6.9,55,0.00,CLR,OVC,0.00,WeatherDisplay:10.37,2013-06-24 22:27:00,
2013-06-24 18:32:00,87.6,70.5,29.93,ESE,112,6.9,6.9,57,0.00,CLR,OVC,0.00,WeatherDisplay:10.37,2013-06-24 22:32:00,
2013-06-24 18:37:00,87.3,70.2,29.93,SSW,202,5.8,5.8,57,0.00,CLR,OVC,0.00,WeatherDisplay:10.37,2013-06-24 22:37:00,
2013-06-24 18:43:00,86.4,69.4,29.93,ESE,112,6.9,6.9,57,0.00,CLR,OVC,0.00,WeatherDisplay:10.37,2013-06-24 22:43:00,
2013-06-24 18:48:00,86.0,69.5,29.93,SE,135,7.3,7.3,58,0.00,CLR,OVC,0.00,WeatherDisplay:10.37,2013-06-24 22:48:00,
2013-06-24 18:53:00,85.6,68.6,29.93,ESE,112,6.9,6.9,57,0.00,CLR,OVC,0.00,WeatherDisplay:10.37,2013-06-24 22:53:00,
2013-06-24 18:58:00,85.5,68.0,29.93,SSW,202,6.8,6.8,56,0.00,CLR,OVC,0.00,WeatherDisplay:10.37,2013-06-24 22:58:00,
2013-06-24 19:04:00,85.1,67.1,29.93,SSE,158,9.2,9.2,55,0.00,CLR,OVC,0.00,WeatherDisplay:10.37,2013-06-24 23:04:00,
2013-06-24 19:09:00,84.7,66.7,29.93,SE,135,3.5,3.6,55,0.00,CLR,OVC,0.00,WeatherDisplay:10.37,2013-06-24 23:09:00,
2013-06-24 19:14:00,84.6,66.7,29.93,SSE,158,6.9,6.9,55,0.00,CLR,OVC,0.00,WeatherDisplay:10.37,2013-06-24 23:14:00,
2013-06-24 19:19:00,84.6,67.2,29.93,East,90,9.2,9.2,56,0.00,CLR,OVC,0.00,WeatherDisplay:10.37,2013-06-24 23:19:00,
2013-06-24 19:24:00,84.4,67.5,29.94,ESE,112,5.8,5.8,57,0.00,CLR,OVC,0.00,WeatherDisplay:10.37,2013-06-24 23:24:00,
2013-06-24 19:29:00,84.4,67.5,29.94,ESE,112,4.6,4.6,57,0.00,CLR,OVC,0.00,WeatherDisplay:10.37,2013-06-24 23:29:00,
2013-06-24 19:35:00,84.2,67.8,29.94,NW,315,5.8,5.8,58,0.00,CLR,OVC,0.00,WeatherDisplay:10.37,2013-06-24 23:35:00,
2013-06-24 19:40:00,84.2,68.3,29.93,NW,315,4.6,4.6,59,0.00,CLR,OVC,0.00,WeatherDisplay:10.37,2013-06-24 23:40:00,
2013-06-24 19:45:00,84.2,68.8,29.93,SSW,202,5.8,5.8,60,0.00,CLR,OVC,0.00,WeatherDisplay:10.37,2013-06-24 23:45:00,
2013-06-24 19:50:00,84.2,69.3,29.93,ESE,112,5.8,5.8,61,0.00,CLR,OVC,0.00,WeatherDisplay:10.37,2013-06-24 23:50:00,
2013-06-24 19:56:00,84.2,69.3,29.93,SW,225,5.8,5.8,61,0.00,CLR,OVC,0.00,WeatherDisplay:10.37,2013-06-24 23:56:00,
2013-06-24 20:01:00,84.2,69.8,29.93,South,180,4.6,4.6,62,0.00,CLR,OVC,0.00,WeatherDisplay:10.37,2013-06-25 00:01:00,
2013-06-24 20:06:00,84.2,69.8,29.93,South,180,5.8,5.8,62,0.00,CLR,OVC,0.00,WeatherDisplay:10.37,2013-06-25 00:06:00,
2013-06-24 20:11:00,84.2,69.8,29.93,SSE,158,5.8,5.8,62,0.00,CLR,OVC,0.00,WeatherDisplay:10.37,2013-06-25 00:11:00,
2013-06-24 20:16:00,84.0,69.6,29.94,West,270,6.9,6.9,62,0.00,CLR,OVC,0.00,WeatherDisplay:10.37,2013-06-25 00:16:00,
2013-06-24 20:21:00,84.0,69.1,29.94,North,360,4.6,4.6,61,0.00,CLR,OVC,0.00,WeatherDisplay:10.37,2013-06-25 00:21:00,
2013-06-24 20:26:00,84.0,69.1,29.94,NNW,338,2.3,2.3,61,0.00,CLR,OVC,0.00,WeatherDisplay:10.37,2013-06-25 00:26:00,
2013-06-24 20:31:00,84.0,68.1,29.94,WSW,248,5.8,5.8,59,0.00,CLR,OVC,0.00,WeatherDisplay:10.37,2013-06-25 00:31:00,
2013-06-24 20:36:00,84.0,66.6,29.94,West,270,6.9,6.9,56,0.00,CLR,OVC,0.00,WeatherDisplay:10.37,2013-06-25 00:36:00,
2013-06-24 20:41:00,84.0,66.6,29.94,North,360,5.8,5.8,56,0.00,CLR,OVC,0.00,WeatherDisplay:10.37,2013-06-25 00:41:00,
2013-06-24 20:47:00,84.0,66.6,29.94,NNE,22,2.7,2.7,56,0.00,CLR,OVC,0.00,WeatherDisplay:10.37,2013-06-25 00:47:00,
2013-06-24 20:52:00,84.0,66.1,29.95,SW,225,5.8,5.8,55,0.00,CLR,OVC,0.00,WeatherDisplay:10.37,2013-06-25 00:52:00,
2013-06-24 20:57:00,83.8,65.9,29.95,SSW,202,3.5,3.5,55,0.00,CLR,OVC,0.00,WeatherDisplay:10.37,2013-06-25 00:57:00,
2013-06-24 21:02:00,83.8,65.9,29.95,WNW,292,2.3,2.7,55,0.00,CLR,OVC,0.00,WeatherDisplay:10.37,2013-06-25 01:02:00,
2013-06-24 21:07:00,83.8,66.4,29.95,SW,225,3.5,3.5,56,0.00,CLR,OVC,0.00,WeatherDisplay:10.37,2013-06-25 01:07:00,
2013-06-24 21:12:00,83.8,66.4,29.95,WNW,292,2.3,0.0,56,0.00,CLR,OVC,0.00,WeatherDisplay:10.37,2013-06-25 01:12:00,
2013-06-24 21:17:00,83.7,66.8,29.95,NE,45,5.8,5.8,57,0.00,CLR,OVC,0.00,WeatherDisplay:10.37,2013-06-25 01:17:00,
2013-06-24 21:22:00,82.0,67.7,29.95,NE,45,5.8,5.8,62,0.00,CLR,OVC,0.00,WeatherDisplay:10.37,2013-06-25 01:22:00,
2013-06-24 21:27:00,81.5,67.7,29.96,NNE,22,3.7,3.7,63,0.00,CLR,OVC,0.00,WeatherDisplay:10.37,2013-06-25 01:27:00,
2013-06-24 21:33:00,81.0,67.2,29.96,ENE,68,3.2,3.2,63,0.00,CLR,OVC,0.00,WeatherDisplay:10.37,2013-06-25 01:33:00,
2013-06-24 21:38:00,80.6,66.8,29.96,SE,135,3.5,3.5,63,0.00,CLR,OVC,0.00,WeatherDisplay:10.37,2013-06-25 01:38:00,
2013-06-24 21:43:00,80.2,66.5,29.96,NE,45,2.3,2.3,63,0.00,CLR,OVC,0.00,WeatherDisplay:10.37,2013-06-25 01:43:00,
2013-06-24 21:48:00,80.1,66.4,29.98,South,180,5.8,5.8,63,0.00,CLR,OVC,0.00,WeatherDisplay:10.37,2013-06-25 01:48:00,
2013-06-24 21:53:00,79.9,66.2,29.98,North,360,1.1,0.0,63,0.00,CLR,OVC,0.00,WeatherDisplay:10.37,2013-06-25 01:53:00,
2013-06-24 21:59:00,79.5,66.3,29.98,ESE,112,2.3,2.3,64,0.00,CLR,OVC,0.00,WeatherDisplay:10.37,2013-06-25 01:59:00,
2013-06-24 22:04:00,79.5,66.3,29.98,East,90,0.0,0.0,64,0.00,CLR,OVC,0.00,WeatherDisplay:10.37,2013-06-25 02:04:00,
2013-06-24 22:09:00,79.2,66.0,29.98,SE,135,1.1,1.1,64,0.00,CLR,OVC,0.00,WeatherDisplay:10.37,2013-06-25 02:09:00,
2013-06-24 22:14:00,79.0,65.8,29.97,ESE,112,0.0,0.0,64,0.00,CLR,OVC,0.00,WeatherDisplay:10.37,2013-06-25 02:14:00,
2013-06-24 22:19:00,78.8,65.6,29.97,WSW,248,0.0,0.0,64,0.00,CLR,OVC,0.00,WeatherDisplay:10.37,2013-06-25 02:19:00,
2013-06-24 22:24:00,78.4,65.7,29.97,South,180,0.0,0.0,65,0.00,CLR,OVC,0.00,WeatherDisplay:10.37,2013-06-25 02:24:00,
2013-06-24 22:29:00,78.3,65.6,29.97,SSE,158,0.0,0.0,65,0.00,CLR,OVC,0.00,WeatherDisplay:10.37,2013-06-25 02:29:00,
2013-06-24 22:35:00,77.9,65.6,29.97,NW,315,0.0,0.0,66,0.00,CLR,OVC,0.00,WeatherDisplay:10.37,2013-06-25 02:35:00,
2013-06-24 22:40:00,77.9,66.1,29.97,SE,135,0.0,0.0,67,0.00,CLR,OVC,0.00,WeatherDisplay:10.37,2013-06-25 02:40:00,
2013-06-24 22:46:00,78.1,66.2,29.97,ESE,112,1.1,1.1,67,0.00,CLR,OVC,0.00,WeatherDisplay:10.37,2013-06-25 02:46:00,
2013-06-24 22:51:00,77.9,66.1,29.97,ESE,112,0.0,0.0,67,0.00,CLR,OVC,0.00,WeatherDisplay:10.37,2013-06-25 02:51:00,
2013-06-24 22:56:00,78.1,66.2,29.97,East,90,0.0,0.0,67,0.00,CLR,OVC,0.00,WeatherDisplay:10.37,2013-06-25 02:56:00,
2013-06-24 23:01:00,77.7,65.9,29.96,SW,225,0.0,0.0,67,0.00,CLR,OVC,0.00,WeatherDisplay:10.37,2013-06-25 03:01:00,
2013-06-24 23:06:00,78.3,65.1,29.96,SE,135,0.0,0.0,64,0.00,CLR,OVC,0.00,WeatherDisplay:10.37,2013-06-25 03:06:00,
2013-06-24 23:12:00,78.3,65.1,29.97,ENE,68,0.0,0.0,64,0.00,CLR,OVC,0.00,WeatherDisplay:10.37,2013-06-25 03:12:00,
2013-06-24 23:17:00,78.3,64.7,29.97,SSE,158,1.7,1.7,63,0.00,CLR,OVC,0.00,WeatherDisplay:10.37,2013-06-25 03:17:00,
2013-06-24 23:23:00,78.1,64.5,29.97,NNW,338,0.0,0.0,63,0.00,CLR,OVC,0.00,WeatherDisplay:10.37,2013-06-25 03:23:00,
2013-06-24 23:28:00,77.9,64.3,29.97,SE,135,1.1,1.1,63,0.00,CLR,OVC,0.00,WeatherDisplay:10.37,2013-06-25 03:28:00,
2013-06-24 23:33:00,78.1,64.0,29.97,NW,315,0.0,0.0,62,0.00,CLR,OVC,0.00,WeatherDisplay:10.37,2013-06-25 03:33:00,
2013-06-24 23:38:00,77.7,63.6,29.96,NE,45,1.7,1.7,62,0.00,CLR,OVC,0.00,WeatherDisplay:10.37,2013-06-25 03:38:00,
2013-06-24 23:44:00,77.5,63.5,29.96,WNW,292,0.0,0.0,62,0.00,CLR,OVC,0.00,WeatherDisplay:10.37,2013-06-25 03:44:00,
2013-06-24 23:49:00,77.7,63.6,29.96,East,90,4.6,4.6,62,0.00,CLR,OVC,0.00,WeatherDisplay:10.37,2013-06-25 03:49:00,
2013-06-24 23:54:00,78.1,64.0,29.96,SSW,202,2.7,2.7,62,0.00,CLR,OVC,0.00,WeatherDisplay:10.37,2013-06-25 03:54:00,